createdAt,value
2019-03-20T00:00:40.308Z,93.61
2019-03-20T00:01:43.999Z,94.03
2019-03-20T00:02:40.368Z,93.94
2019-03-20T00:03:40.403Z,94.13
2019-03-20T00:04:49.243Z,94.13
2019-03-20T00:05:40.473Z,93.47
2019-03-20T00:06:40.507Z,93.75
2019-03-20T00:07:40.543Z,93.94
2019-03-20T00:08:40.579Z,94.32
2019-03-20T00:09:40.613Z,94.41
2019-03-20T00:10:40.647Z,94.60
2019-03-20T00:11:40.683Z,93.84
2019-03-20T00:12:40.715Z,93.75
2019-03-20T00:13:40.757Z,93.75
2019-03-20T00:14:40.796Z,93.84
2019-03-20T00:15:40.820Z,93.75
2019-03-20T00:16:40.855Z,93.56
2019-03-20T00:17:40.891Z,93.75
2019-03-20T00:18:40.923Z,93.66
2019-03-20T00:19:40.958Z,93.75
2019-03-20T00:20:40.994Z,93.84
2019-03-20T00:21:41.034Z,93.66
2019-03-20T00:22:43.200Z,93.56
2019-03-20T00:23:41.100Z,93.56
2019-03-20T00:24:41.133Z,93.75
2019-03-20T00:25:41.176Z,93.47
2019-03-20T00:26:41.200Z,94.32
2019-03-20T00:27:41.238Z,94.13
2019-03-20T00:28:41.284Z,93.47
2019-03-20T00:29:41.306Z,93.75
2019-03-20T00:30:41.349Z,93.75
2019-03-20T00:31:41.380Z,93.75
2019-03-20T00:32:41.416Z,93.28
2019-03-20T00:33:41.496Z,93.56
2019-03-20T00:34:41.486Z,93.75
2019-03-20T00:35:41.516Z,93.75
2019-03-20T00:36:41.553Z,93.75
2019-03-20T00:37:41.585Z,93.75
2019-03-20T00:38:41.628Z,93.75
2019-03-20T00:39:41.654Z,94.32
2019-03-20T00:40:41.697Z,93.66
2019-03-20T00:41:41.725Z,93.94
2019-03-20T00:42:41.761Z,94.03
2019-03-20T00:43:41.801Z,93.94
2019-03-20T00:44:41.828Z,94.22
2019-03-20T00:45:41.862Z,93.47
2019-03-20T00:46:41.903Z,94.03
2019-03-20T00:47:41.930Z,94.32
2019-03-20T00:48:41.965Z,94.60
2019-03-20T00:49:42.000Z,94.03
2019-03-20T00:50:42.037Z,93.47
2019-03-20T00:51:42.070Z,93.75
2019-03-20T00:52:42.103Z,93.56
2019-03-20T00:53:42.138Z,93.84
2019-03-20T00:54:42.173Z,94.13
2019-03-20T00:55:42.219Z,93.66
2019-03-20T00:56:42.241Z,93.75
2019-03-20T00:57:42.277Z,93.66
2019-03-20T00:58:42.314Z,93.94
2019-03-20T00:59:42.346Z,93.75
2019-03-20T01:00:42.380Z,93.75
2019-03-20T01:01:42.421Z,93.47
2019-03-20T01:02:42.494Z,93.37
2019-03-20T01:03:42.484Z,93.84
2019-03-20T01:04:42.521Z,93.66
2019-03-20T01:05:42.554Z,93.94
2019-03-20T01:06:42.588Z,93.75
2019-03-20T01:07:42.623Z,93.75
2019-03-20T01:08:42.670Z,94.32
2019-03-20T01:09:42.692Z,94.13
2019-03-20T01:10:42.729Z,93.84
2019-03-20T01:11:42.761Z,94.41
2019-03-20T01:12:42.802Z,94.22
2019-03-20T01:13:42.833Z,94.13
2019-03-20T01:14:42.866Z,94.79
2019-03-20T01:15:42.901Z,94.32
2019-03-20T01:16:42.935Z,94.41
2019-03-20T01:17:42.970Z,94.89
2019-03-20T01:18:43.009Z,94.60
2019-03-20T01:19:43.053Z,94.32
2019-03-20T01:20:43.079Z,94.03
2019-03-20T01:21:43.162Z,94.03
2019-03-20T01:22:43.146Z,93.84
2019-03-20T01:23:43.189Z,93.75
2019-03-20T01:24:43.214Z,93.84
2019-03-20T01:25:43.248Z,93.84
2019-03-20T01:26:43.287Z,94.03
2019-03-20T01:27:43.323Z,93.84
2019-03-20T01:28:43.354Z,93.84
2019-03-20T01:29:43.383Z,93.28
2019-03-20T01:30:43.420Z,93.75
2019-03-20T01:31:43.455Z,93.84
2019-03-20T01:32:43.489Z,94.03
2019-03-20T01:33:43.523Z,94.03
2019-03-20T01:34:43.563Z,93.84
2019-03-20T01:35:43.591Z,93.66
2019-03-20T01:36:43.628Z,93.75
2019-03-20T01:37:43.662Z,93.75
2019-03-20T01:38:43.695Z,93.75
2019-03-20T01:39:43.731Z,93.75
2019-03-20T01:40:43.764Z,93.75
2019-03-20T01:41:43.800Z,93.84
2019-03-20T01:42:43.833Z,93.66
2019-03-20T01:43:43.868Z,93.75
2019-03-20T01:44:43.906Z,93.75
2019-03-20T01:45:43.938Z,93.37
2019-03-20T01:46:43.975Z,93.84
2019-03-20T01:47:44.007Z,93.84
2019-03-20T01:48:44.044Z,93.75
2019-03-20T01:49:44.076Z,93.66
2019-03-20T01:50:44.110Z,93.84
2019-03-20T01:51:44.145Z,93.28
2019-03-20T01:52:44.181Z,94.41
2019-03-20T01:53:44.214Z,94.32
2019-03-20T01:54:44.249Z,93.75
2019-03-20T01:55:44.285Z,93.47
2019-03-20T01:56:44.319Z,93.66
2019-03-20T01:57:44.357Z,93.56
2019-03-20T01:58:44.387Z,93.84
2019-03-20T01:59:44.421Z,93.75
2019-03-20T02:00:44.456Z,94.03
2019-03-20T02:01:44.496Z,94.79
2019-03-20T02:02:44.532Z,94.22
2019-03-20T02:03:44.564Z,93.84
2019-03-20T02:04:44.593Z,94.13
2019-03-20T02:05:44.638Z,94.60
2019-03-20T02:06:44.665Z,94.70
2019-03-20T02:07:44.698Z,94.32
2019-03-20T02:08:44.765Z,93.47
2019-03-20T02:09:44.767Z,93.66
2019-03-20T02:10:44.802Z,93.84
2019-03-20T02:11:44.837Z,94.03
2019-03-20T02:12:44.873Z,94.03
2019-03-20T02:13:44.907Z,93.75
2019-03-20T02:14:44.942Z,93.28
2019-03-20T02:15:44.975Z,93.47
2019-03-20T02:16:45.012Z,93.28
2019-03-20T02:17:45.046Z,93.75
2019-03-20T02:18:45.079Z,94.03
2019-03-20T02:19:45.116Z,93.84
2019-03-20T02:20:45.147Z,93.84
2019-03-20T02:21:45.183Z,93.84
2019-03-20T02:22:45.219Z,93.75
2019-03-20T02:23:45.254Z,93.66
2019-03-20T02:24:45.293Z,94.22
2019-03-20T02:25:45.321Z,93.66
2019-03-20T02:26:45.354Z,93.94
2019-03-20T02:27:45.390Z,93.37
2019-03-20T02:28:45.422Z,93.09
2019-03-20T02:29:45.458Z,92.90
2019-03-20T02:30:45.497Z,93.47
2019-03-20T02:31:45.526Z,93.47
2019-03-20T02:32:45.594Z,93.47
2019-03-20T02:33:45.599Z,93.56
2019-03-20T02:34:45.631Z,93.80
2019-03-20T02:35:51.863Z,93.84
2019-03-20T02:36:45.700Z,93.37
2019-03-20T02:37:45.747Z,93.28
2019-03-20T02:38:45.771Z,93.47
2019-03-20T02:39:45.817Z,93.66
2019-03-20T02:40:45.839Z,93.75
2019-03-20T02:41:45.870Z,93.94
2019-03-20T02:42:45.978Z,93.70
2019-03-20T02:43:45.941Z,93.47
2019-03-20T02:44:45.980Z,94.32
2019-03-20T02:45:46.016Z,94.13
2019-03-20T02:46:46.044Z,94.70
2019-03-20T02:47:46.084Z,94.13
2019-03-20T02:48:46.121Z,94.03
2019-03-20T02:49:46.149Z,94.13
2019-03-20T02:50:46.180Z,94.60
2019-03-20T02:51:46.224Z,94.18
2019-03-20T02:52:46.249Z,94.37
2019-03-20T02:53:46.296Z,94.60
2019-03-20T02:54:46.317Z,93.99
2019-03-20T02:55:46.370Z,94.32
2019-03-20T02:56:46.388Z,93.42
2019-03-20T02:57:46.433Z,93.99
2019-03-20T02:58:46.606Z,93.32
2019-03-20T02:59:46.489Z,93.99
2019-03-20T03:00:46.525Z,93.61
2019-03-20T03:01:46.560Z,93.89
2019-03-20T03:02:46.593Z,93.70
2019-03-20T03:03:46.627Z,93.61
2019-03-20T03:04:46.664Z,93.99
2019-03-20T03:05:46.708Z,93.99
2019-03-20T03:06:46.731Z,93.80
2019-03-20T03:07:46.772Z,93.61
2019-03-20T03:08:46.817Z,93.99
2019-03-20T03:09:46.835Z,93.32
2019-03-20T03:10:46.866Z,93.42
2019-03-20T03:11:46.915Z,93.42
2019-03-20T03:12:46.941Z,93.42
2019-03-20T03:13:46.980Z,93.32
2019-03-20T03:14:47.006Z,93.13
2019-03-20T03:15:47.041Z,93.32
2019-03-20T03:16:47.080Z,93.42
2019-03-20T03:17:47.115Z,93.51
2019-03-20T03:18:47.144Z,93.13
2019-03-20T03:19:47.178Z,93.51
2019-03-20T03:20:47.213Z,93.61
2019-03-20T03:21:47.249Z,93.80
2019-03-20T03:22:47.287Z,93.80
2019-03-20T03:23:47.322Z,93.89
2019-03-20T03:24:47.358Z,93.42
2019-03-20T03:25:50.005Z,93.42
2019-03-20T03:26:47.418Z,93.61
2019-03-20T03:27:47.454Z,93.32
2019-03-20T03:28:47.496Z,94.08
2019-03-20T03:29:47.521Z,93.89
2019-03-20T03:30:47.558Z,94.27
2019-03-20T03:31:47.607Z,94.18
2019-03-20T03:32:47.709Z,93.99
2019-03-20T03:33:47.658Z,94.37
2019-03-20T03:34:47.697Z,94.46
2019-03-20T03:35:47.733Z,94.46
2019-03-20T03:36:47.762Z,94.46
2019-03-20T03:37:47.797Z,94.18
2019-03-20T03:38:47.832Z,94.27
2019-03-20T03:39:47.871Z,94.27
2019-03-20T03:40:47.905Z,94.37
2019-03-20T03:41:47.987Z,94.37
2019-03-20T03:42:47.992Z,94.56
2019-03-20T03:43:48.004Z,94.37
2019-03-20T03:44:48.036Z,94.18
2019-03-20T03:45:48.071Z,94.27
2019-03-20T03:46:48.103Z,94.37
2019-03-20T03:47:48.148Z,94.46
2019-03-20T03:48:48.175Z,94.46
2019-03-20T03:49:48.207Z,94.46
2019-03-20T03:50:48.605Z,94.65
2019-03-20T03:51:48.281Z,94.74
2019-03-20T03:52:48.310Z,94.37
2019-03-20T03:53:48.344Z,93.51
2019-03-20T03:54:48.376Z,93.89
2019-03-20T03:55:48.421Z,93.70
2019-03-20T03:56:48.449Z,93.80
2019-03-20T03:57:48.487Z,94.27
2019-03-20T03:58:48.514Z,93.80
2019-03-20T03:59:48.558Z,94.08
2019-03-20T04:00:48.589Z,93.99
2019-03-20T04:01:48.618Z,93.99
2019-03-20T04:02:48.683Z,94.08
2019-03-20T04:03:48.693Z,93.42
2019-03-20T04:04:48.721Z,94.08
2019-03-20T04:05:48.815Z,94.08
2019-03-20T04:06:48.800Z,93.99
2019-03-20T04:07:48.826Z,94.65
2019-03-20T04:08:48.877Z,94.18
2019-03-20T04:09:48.893Z,93.99
2019-03-20T04:10:48.926Z,94.08
2019-03-20T04:11:48.960Z,94.84
2019-03-20T04:12:49.003Z,94.46
2019-03-20T04:13:49.053Z,94.51
2019-03-20T04:14:49.069Z,94.89
2019-03-20T04:15:49.098Z,94.51
2019-03-20T04:16:49.133Z,94.51
2019-03-20T04:17:49.195Z,94.51
2019-03-20T04:18:49.203Z,94.70
2019-03-20T04:19:49.236Z,94.51
2019-03-20T04:20:49.272Z,94.22
2019-03-20T04:21:49.311Z,93.94
2019-03-20T04:22:49.350Z,93.66
2019-03-20T04:23:49.375Z,93.84
2019-03-20T04:24:49.408Z,94.13
2019-03-20T04:25:49.444Z,94.60
2019-03-20T04:26:49.486Z,94.32
2019-03-20T04:27:49.512Z,94.51
2019-03-20T04:28:49.546Z,94.32
2019-03-20T04:29:49.581Z,94.70
2019-03-20T04:30:49.614Z,95.07
2019-03-20T04:31:49.652Z,94.60
2019-03-20T04:32:49.682Z,94.98
2019-03-20T04:33:49.724Z,94.41
2019-03-20T04:34:49.752Z,94.70
2019-03-20T04:35:49.783Z,94.32
2019-03-20T04:36:49.828Z,94.41
2019-03-20T04:37:49.854Z,94.70
2019-03-20T04:38:49.890Z,94.70
2019-03-20T04:39:49.922Z,94.89
2019-03-20T04:40:49.956Z,94.32
2019-03-20T04:41:49.991Z,94.51
2019-03-20T04:42:50.025Z,94.70
2019-03-20T04:43:50.061Z,94.41
2019-03-20T04:44:50.100Z,94.41
2019-03-20T04:45:50.128Z,94.89
2019-03-20T04:46:50.169Z,94.98
2019-03-20T04:47:50.201Z,94.89
2019-03-20T04:48:50.235Z,94.98
2019-03-20T04:49:50.268Z,94.70
2019-03-20T04:50:50.301Z,94.89
2019-03-20T04:51:50.338Z,94.74
2019-03-20T04:52:50.369Z,94.79
2019-03-20T04:53:50.406Z,94.32
2019-03-20T04:54:50.438Z,94.60
2019-03-20T04:55:50.473Z,94.74
2019-03-20T04:56:50.507Z,94.37
2019-03-20T04:57:50.541Z,94.56
2019-03-20T04:58:50.576Z,94.08
2019-03-20T04:59:50.608Z,94.65
2019-03-20T05:00:50.727Z,94.37
2019-03-20T05:01:50.679Z,94.37
2019-03-20T05:02:50.760Z,94.60
2019-03-20T05:03:50.748Z,94.56
2019-03-20T05:04:50.789Z,94.41
2019-03-20T05:05:50.817Z,94.27
2019-03-20T05:06:58.918Z,94.56
2019-03-20T05:07:50.897Z,94.65
2019-03-20T05:08:50.917Z,94.56
2019-03-20T05:09:50.957Z,94.46
2019-03-20T05:10:50.988Z,94.65
2019-03-20T05:11:51.025Z,94.65
2019-03-20T05:12:51.055Z,94.65
2019-03-20T05:13:51.088Z,94.65
2019-03-20T05:14:51.125Z,94.65
2019-03-20T05:15:51.168Z,94.27
2019-03-20T05:16:51.191Z,94.74
2019-03-20T05:17:51.236Z,94.56
2019-03-20T05:18:51.262Z,94.46
2019-03-20T05:19:51.301Z,94.46
2019-03-20T05:20:51.330Z,94.46
2019-03-20T05:21:51.364Z,94.18
2019-03-20T05:22:51.398Z,94.74
2019-03-20T05:23:51.431Z,94.27
2019-03-20T05:24:51.467Z,94.46
2019-03-20T05:25:51.501Z,94.56
2019-03-20T05:26:51.537Z,94.18
2019-03-20T05:27:51.571Z,94.27
2019-03-20T05:28:51.605Z,94.27
2019-03-20T05:29:51.637Z,94.18
2019-03-20T05:30:51.672Z,94.56
2019-03-20T05:31:51.712Z,94.74
2019-03-20T05:32:51.739Z,94.65
2019-03-20T05:33:51.780Z,94.18
2019-03-20T05:34:51.810Z,93.89
2019-03-20T05:35:51.843Z,94.37
2019-03-20T05:36:51.876Z,94.65
2019-03-20T05:37:51.912Z,94.46
2019-03-20T05:38:51.944Z,94.56
2019-03-20T05:39:51.981Z,94.46
2019-03-20T05:40:52.018Z,94.37
2019-03-20T05:41:52.051Z,94.37
2019-03-20T05:42:52.081Z,94.65
2019-03-20T05:43:52.117Z,94.65
2019-03-20T05:44:52.153Z,94.18
2019-03-20T05:45:52.185Z,94.74
2019-03-20T05:46:52.223Z,94.84
2019-03-20T05:47:52.254Z,94.84
2019-03-20T05:48:52.287Z,94.93
2019-03-20T05:49:52.321Z,94.84
2019-03-20T05:50:52.356Z,95.03
2019-03-20T05:51:52.391Z,94.79
2019-03-20T05:52:52.426Z,94.70
2019-03-20T05:53:52.459Z,94.65
2019-03-20T05:54:52.493Z,94.65
2019-03-20T05:55:52.535Z,94.65
2019-03-20T05:56:52.560Z,94.74
2019-03-20T05:57:52.597Z,94.84
2019-03-20T05:58:52.629Z,94.84
2019-03-20T05:59:52.673Z,94.84
2019-03-20T06:00:52.702Z,94.56
2019-03-20T06:01:52.734Z,94.37
2019-03-20T06:02:52.767Z,94.56
2019-03-20T06:03:52.814Z,94.84
2019-03-20T06:04:52.835Z,94.37
2019-03-20T06:05:52.871Z,94.41
2019-03-20T06:06:52.904Z,94.89
2019-03-20T06:07:52.938Z,94.70
2019-03-20T06:08:52.971Z,94.79
2019-03-20T06:09:53.007Z,94.89
2019-03-20T06:10:53.039Z,94.65
2019-03-20T06:11:53.074Z,94.89
2019-03-20T06:12:53.108Z,94.79
2019-03-20T06:13:53.147Z,94.79
2019-03-20T06:14:53.176Z,94.70
2019-03-20T06:15:53.211Z,94.70
2019-03-20T06:16:53.246Z,94.79
2019-03-20T06:17:53.279Z,94.60
2019-03-20T06:18:53.323Z,94.51
2019-03-20T06:19:53.351Z,94.79
2019-03-20T06:20:53.384Z,94.89
2019-03-20T06:21:53.418Z,94.51
2019-03-20T06:22:53.460Z,94.89
2019-03-20T06:23:53.490Z,95.54
2019-03-20T06:24:53.527Z,95.17
2019-03-20T06:25:53.554Z,95.17
2019-03-20T06:26:53.591Z,95.26
2019-03-20T06:27:53.626Z,95.17
2019-03-20T06:28:53.658Z,95.17
2019-03-20T06:29:53.701Z,94.98
2019-03-20T06:30:53.727Z,95.36
2019-03-20T06:31:53.761Z,95.26
2019-03-20T06:32:53.795Z,95.17
2019-03-20T06:33:53.832Z,95.26
2019-03-20T06:34:53.875Z,95.17
2019-03-20T06:35:53.899Z,95.36
2019-03-20T06:36:53.942Z,95.26
2019-03-20T06:37:53.969Z,95.17
2019-03-20T06:38:54.002Z,95.17
2019-03-20T06:39:54.048Z,95.26
2019-03-20T06:40:54.120Z,95.54
2019-03-20T06:41:54.107Z,95.17
2019-03-20T06:42:55.419Z,95.17
2019-03-20T06:43:54.177Z,94.98
2019-03-20T06:44:54.208Z,95.17
2019-03-20T06:45:54.244Z,95.17
2019-03-20T06:46:54.278Z,95.17
2019-03-20T06:47:54.315Z,95.26
2019-03-20T06:48:54.356Z,95.17
2019-03-20T06:49:54.383Z,95.17
2019-03-20T06:50:54.521Z,95.36
2019-03-20T06:51:54.451Z,95.40
2019-03-20T06:52:54.492Z,95.45
2019-03-20T06:53:54.521Z,95.31
2019-03-20T06:54:54.558Z,95.31
2019-03-20T06:55:54.595Z,95.50
2019-03-20T06:56:54.637Z,95.12
2019-03-20T06:57:54.761Z,95.97
2019-03-20T06:58:54.694Z,95.88
2019-03-20T06:59:54.731Z,95.97
2019-03-20T07:00:54.764Z,95.40
2019-03-20T07:01:54.810Z,95.69
2019-03-20T07:02:54.833Z,95.78
2019-03-20T07:03:54.868Z,95.97
2019-03-20T07:04:54.964Z,95.59
2019-03-20T07:05:54.949Z,95.97
2019-03-20T07:06:54.970Z,96.16
2019-03-20T07:07:55.008Z,95.97
2019-03-20T07:08:55.044Z,95.78
2019-03-20T07:09:55.081Z,96.07
2019-03-20T07:10:55.120Z,95.97
2019-03-20T07:11:55.148Z,95.78
2019-03-20T07:12:55.185Z,95.88
2019-03-20T07:13:55.216Z,95.88
2019-03-20T07:14:55.250Z,96.02
2019-03-20T07:15:55.285Z,95.78
2019-03-20T07:16:55.329Z,95.69
2019-03-20T07:17:55.356Z,96.40
2019-03-20T07:18:55.390Z,96.59
2019-03-20T07:19:55.433Z,95.93
2019-03-20T07:20:55.459Z,95.93
2019-03-20T07:21:55.498Z,96.12
2019-03-20T07:22:55.529Z,95.93
2019-03-20T07:23:55.563Z,96.12
2019-03-20T07:24:55.600Z,96.12
2019-03-20T07:25:55.633Z,96.40
2019-03-20T07:26:55.729Z,95.83
2019-03-20T07:27:55.704Z,96.50
2019-03-20T07:28:55.740Z,95.93
2019-03-20T07:29:55.777Z,96.12
2019-03-20T07:30:55.809Z,96.50
2019-03-20T07:31:55.845Z,96.59
2019-03-20T07:32:55.880Z,96.31
2019-03-20T07:33:55.919Z,96.59
2019-03-20T07:34:55.964Z,95.83
2019-03-20T07:35:55.990Z,95.93
2019-03-20T07:36:56.032Z,95.93
2019-03-20T07:37:56.530Z,96.40
2019-03-20T07:38:56.096Z,96.40
2019-03-20T07:39:56.127Z,96.31
2019-03-20T07:40:56.168Z,96.21
2019-03-20T07:41:56.197Z,96.40
2019-03-20T07:42:56.240Z,96.50
2019-03-20T07:43:56.270Z,95.97
2019-03-20T07:44:56.311Z,96.54
2019-03-20T07:45:56.344Z,96.45
2019-03-20T07:46:56.382Z,96.54
2019-03-20T07:47:56.411Z,96.26
2019-03-20T07:48:56.453Z,96.64
2019-03-20T07:49:56.482Z,96.26
2019-03-20T07:50:56.531Z,96.45
2019-03-20T07:51:56.550Z,96.64
2019-03-20T07:52:56.586Z,96.45
2019-03-20T07:53:56.762Z,96.35
2019-03-20T07:54:56.657Z,96.54
2019-03-20T07:55:56.699Z,96.35
2019-03-20T07:56:56.731Z,96.83
2019-03-20T07:57:56.763Z,96.92
2019-03-20T07:58:56.802Z,96.54
2019-03-20T07:59:56.835Z,96.45
2019-03-20T08:00:56.871Z,96.64
2019-03-20T08:01:56.906Z,96.59
2019-03-20T08:02:56.941Z,96.50
2019-03-20T08:03:56.978Z,96.59
2019-03-20T08:04:57.020Z,96.50
2019-03-20T08:05:57.050Z,96.69
2019-03-20T08:06:57.096Z,96.50
2019-03-20T08:08:06.835Z,96.50
2019-03-20T08:08:57.165Z,96.12
2019-03-20T08:09:57.195Z,96.40
2019-03-20T08:10:57.242Z,96.50
2019-03-20T08:11:57.274Z,96.12
2019-03-20T08:12:57.306Z,96.12
2019-03-20T08:13:57.336Z,96.59
2019-03-20T08:14:57.372Z,96.31
2019-03-20T08:15:57.410Z,96.59
2019-03-20T08:16:57.448Z,96.59
2019-03-20T08:17:57.482Z,96.69
2019-03-20T08:18:57.525Z,96.45
2019-03-20T08:19:57.560Z,95.31
2019-03-20T08:20:57.589Z,96.36
2019-03-20T08:21:57.626Z,96.26
2019-03-20T08:22:57.665Z,96.17
2019-03-20T08:23:57.696Z,95.60
2019-03-20T08:24:57.733Z,95.69
2019-03-20T08:25:57.769Z,95.98
2019-03-20T08:26:57.802Z,96.36
2019-03-20T08:27:57.848Z,96.36
2019-03-20T08:28:57.883Z,95.60
2019-03-20T08:29:57.916Z,95.60
2019-03-20T08:30:57.962Z,95.79
2019-03-20T08:31:57.985Z,95.69
2019-03-20T08:32:58.020Z,95.79
2019-03-20T08:33:58.058Z,95.22
2019-03-20T08:34:58.124Z,95.79
2019-03-20T08:35:58.127Z,95.60
2019-03-20T08:36:58.166Z,95.03
2019-03-20T08:37:58.210Z,95.26
2019-03-20T08:38:58.237Z,95.17
2019-03-20T08:39:58.276Z,95.26
2019-03-20T08:40:58.311Z,95.36
2019-03-20T08:41:58.347Z,94.98
2019-03-20T08:42:58.382Z,95.07
2019-03-20T08:43:58.419Z,94.98
2019-03-20T08:44:58.459Z,95.36
2019-03-20T08:45:58.495Z,95.17
2019-03-20T08:46:58.527Z,95.07
2019-03-20T08:47:58.566Z,95.07
2019-03-20T08:48:58.604Z,94.89
2019-03-20T08:49:58.640Z,95.26
2019-03-20T08:50:58.674Z,95.07
2019-03-20T08:51:58.713Z,94.84
2019-03-20T08:52:58.748Z,94.18
2019-03-20T08:53:58.795Z,94.37
2019-03-20T08:54:58.822Z,94.27
2019-03-20T08:55:58.863Z,94.27
2019-03-20T08:56:58.950Z,94.37
2019-03-20T08:57:58.932Z,94.56
2019-03-20T08:58:58.979Z,94.27
2019-03-20T08:59:59.006Z,94.65
2019-03-20T09:00:59.079Z,94.37
2019-03-20T09:01:59.077Z,93.99
2019-03-20T09:02:59.126Z,93.41
2019-03-20T09:03:59.150Z,93.75
2019-03-20T09:04:59.187Z,94.13
2019-03-20T09:05:59.228Z,93.84
2019-03-20T09:06:59.262Z,94.03
2019-03-20T09:07:59.298Z,93.27
2019-03-20T09:08:59.335Z,93.18
2019-03-20T09:09:59.376Z,92.71
2019-03-20T09:10:59.560Z,92.61
2019-03-20T09:11:59.447Z,92.90
2019-03-20T09:12:59.486Z,92.52
2019-03-20T09:13:59.521Z,92.71
2019-03-20T09:14:59.556Z,92.80
2019-03-20T09:15:59.597Z,92.33
2019-03-20T09:16:59.632Z,92.61
2019-03-20T09:17:59.672Z,92.28
2019-03-20T09:18:59.707Z,92.47
2019-03-20T09:19:59.746Z,92.94
2019-03-20T09:20:59.781Z,91.80
2019-03-20T09:21:59.829Z,92.28
2019-03-20T09:22:59.856Z,91.99
2019-03-20T09:23:59.898Z,91.80
2019-03-20T09:24:59.931Z,91.14
2019-03-20T09:25:59.969Z,91.42
2019-03-20T09:27:00.003Z,91.33
2019-03-20T09:28:00.201Z,91.71
2019-03-20T09:29:00.080Z,91.89
2019-03-20T09:30:00.168Z,91.85
2019-03-20T09:31:00.157Z,91.85
2019-03-20T09:32:00.201Z,92.04
2019-03-20T09:33:00.233Z,91.66
2019-03-20T09:34:00.411Z,91.09
2019-03-20T09:35:00.411Z,91.38
2019-03-20T09:36:00.340Z,90.71
2019-03-20T09:37:00.386Z,90.42
2019-03-20T09:38:00.418Z,90.23
2019-03-20T09:39:00.452Z,91.42
2019-03-20T09:40:00.491Z,91.28
2019-03-20T09:41:00.529Z,91.42
2019-03-20T09:42:00.566Z,91.04
2019-03-20T09:43:00.603Z,91.33
2019-03-20T09:44:00.642Z,91.42
2019-03-20T09:45:00.684Z,91.42
2019-03-20T09:46:00.717Z,91.13
2019-03-20T09:47:00.755Z,90.85
2019-03-20T09:48:00.794Z,90.85
2019-03-20T09:49:00.832Z,90.19
2019-03-20T09:50:00.883Z,90.23
2019-03-20T09:51:00.907Z,90.09
2019-03-20T09:52:01.014Z,90.23
2019-03-20T09:53:00.985Z,89.47
2019-03-20T09:54:01.022Z,89.00
2019-03-20T09:55:01.067Z,87.95
2019-03-20T09:56:01.108Z,87.95
2019-03-20T09:57:01.138Z,88.61
2019-03-20T09:58:11.231Z,88.61
2019-03-20T09:59:01.213Z,88.04
2019-03-20T10:00:01.260Z,88.04
2019-03-20T10:01:01.289Z,88.75
2019-03-20T10:02:02.925Z,87.90
2019-03-20T10:03:01.365Z,87.71
2019-03-20T10:04:01.404Z,87.99
2019-03-20T10:05:01.440Z,87.71
2019-03-20T10:06:01.478Z,87.90
2019-03-20T10:07:01.515Z,87.52
2019-03-20T10:08:01.556Z,87.90
2019-03-20T10:09:02.044Z,87.52
2019-03-20T10:10:01.634Z,86.99
2019-03-20T10:11:01.673Z,87.37
2019-03-20T10:12:01.715Z,87.37
2019-03-20T10:13:01.748Z,87.37
2019-03-20T10:14:01.789Z,86.61
2019-03-20T10:15:01.831Z,87.08
2019-03-20T10:16:01.865Z,86.51
2019-03-20T10:17:01.911Z,87.18
2019-03-20T10:18:01.944Z,87.08
2019-03-20T10:19:01.982Z,86.99
2019-03-20T10:20:02.031Z,86.42
2019-03-20T10:21:02.067Z,86.70
2019-03-20T10:22:02.099Z,87.56
2019-03-20T10:23:02.141Z,87.13
2019-03-20T10:24:02.177Z,87.03
2019-03-20T10:25:02.216Z,86.75
2019-03-20T10:26:02.254Z,85.99
2019-03-20T10:27:02.293Z,85.89
2019-03-20T10:28:02.335Z,85.70
2019-03-20T10:29:02.373Z,85.03
2019-03-20T10:30:02.410Z,85.80
2019-03-20T10:31:02.447Z,85.22
2019-03-20T10:32:02.528Z,85.80
2019-03-20T10:33:02.536Z,85.60
2019-03-20T10:34:02.569Z,86.18
2019-03-20T10:35:02.612Z,85.51
2019-03-20T10:36:02.643Z,86.08
2019-03-20T10:37:02.691Z,85.80
2019-03-20T10:38:02.722Z,84.98
2019-03-20T10:39:06.763Z,85.08
2019-03-20T10:40:02.800Z,84.79
2019-03-20T10:41:02.839Z,85.74
2019-03-20T10:42:02.881Z,85.55
2019-03-20T10:43:02.919Z,86.51
2019-03-20T10:44:02.960Z,86.32
2019-03-20T10:45:03.002Z,85.64
2019-03-20T10:46:03.041Z,84.79
2019-03-20T10:47:03.086Z,84.98
2019-03-20T10:48:03.129Z,84.69
2019-03-20T10:49:03.154Z,84.69
2019-03-20T10:50:03.205Z,84.03
2019-03-20T10:51:03.249Z,84.31
2019-03-20T10:52:03.275Z,84.26
2019-03-20T10:53:03.319Z,83.93
2019-03-20T10:54:03.353Z,83.12
2019-03-20T10:55:03.404Z,83.97
2019-03-20T10:56:03.449Z,83.69
2019-03-20T10:57:03.485Z,84.55
2019-03-20T10:58:03.516Z,84.16
2019-03-20T10:59:03.550Z,83.40
2019-03-20T11:00:03.593Z,83.12
2019-03-20T11:01:03.642Z,83.31
2019-03-20T11:02:03.683Z,83.40
2019-03-20T11:03:03.713Z,82.97
2019-03-20T11:04:03.840Z,82.73
2019-03-20T11:05:03.793Z,81.59
2019-03-20T11:06:03.834Z,81.44
2019-03-20T11:07:03.870Z,81.35
2019-03-20T11:08:03.916Z,82.01
2019-03-20T11:09:03.962Z,81.63
2019-03-20T11:10:04.002Z,81.63
2019-03-20T11:11:04.042Z,81.35
2019-03-20T11:12:04.073Z,80.96
2019-03-20T11:13:04.111Z,80.20
2019-03-20T11:14:04.188Z,80.39
2019-03-20T11:15:04.204Z,80.58
2019-03-20T11:16:04.234Z,80.11
2019-03-20T11:17:04.274Z,80.01
2019-03-20T11:18:04.314Z,80.11
2019-03-20T11:19:04.364Z,80.05
2019-03-20T11:20:04.402Z,79.28
2019-03-20T11:21:04.434Z,78.81
2019-03-20T11:22:04.823Z,78.62
2019-03-20T11:23:04.514Z,79.67
2019-03-20T11:24:04.554Z,80.24
2019-03-20T11:25:04.595Z,80.05
2019-03-20T11:26:04.653Z,79.28
2019-03-20T11:27:04.679Z,78.81
2019-03-20T11:28:04.733Z,78.81
2019-03-20T11:29:04.758Z,77.86
2019-03-20T11:30:04.803Z,77.86
2019-03-20T11:31:04.841Z,76.90
2019-03-20T11:32:04.886Z,76.33
2019-03-20T11:33:04.923Z,76.04
2019-03-20T11:34:04.979Z,77.47
2019-03-20T11:35:05.000Z,75.76
2019-03-20T11:36:05.049Z,75.57
2019-03-20T11:37:05.092Z,77.00
2019-03-20T11:38:05.123Z,76.42
2019-03-20T11:39:05.163Z,76.56
2019-03-20T11:40:05.206Z,76.46
2019-03-20T11:41:05.262Z,75.98
2019-03-20T11:42:05.287Z,75.22
2019-03-20T11:43:05.391Z,74.90
2019-03-20T11:44:05.375Z,74.46
2019-03-20T11:45:05.409Z,75.42
2019-03-20T11:46:05.451Z,74.37
2019-03-20T11:47:05.493Z,73.79
2019-03-20T11:48:05.533Z,73.22
2019-03-20T11:49:05.582Z,73.47
2019-03-20T11:50:05.615Z,74.65
2019-03-20T11:51:05.658Z,74.61
2019-03-20T11:52:06.399Z,74.37
2019-03-20T11:53:05.738Z,74.65
2019-03-20T11:54:05.778Z,74.55
2019-03-20T11:55:05.824Z,73.22
2019-03-20T11:56:05.862Z,72.93
2019-03-20T11:57:05.901Z,73.12
2019-03-20T11:58:05.943Z,72.83
2019-03-20T11:59:05.984Z,73.12
2019-03-20T12:00:06.026Z,73.88
2019-03-20T12:01:06.071Z,72.45
2019-03-20T12:02:06.107Z,71.41
2019-03-20T12:03:06.157Z,72.07
2019-03-20T12:04:06.203Z,72.36
2019-03-20T12:05:06.237Z,72.64
2019-03-20T12:06:06.272Z,72.26
2019-03-20T12:07:06.320Z,72.07
2019-03-20T12:08:06.425Z,71.69
2019-03-20T12:09:06.396Z,71.63
2019-03-20T12:10:06.444Z,70.83
2019-03-20T12:11:06.478Z,69.78
2019-03-20T12:12:06.531Z,69.87
2019-03-20T12:13:06.569Z,71.21
2019-03-20T12:14:06.608Z,71.31
2019-03-20T12:15:06.643Z,71.69
2019-03-20T12:16:06.685Z,71.12
2019-03-20T12:17:06.726Z,70.73
2019-03-20T12:18:06.770Z,70.54
2019-03-20T12:19:06.823Z,72.07
2019-03-20T12:20:06.851Z,70.45
2019-03-20T12:21:06.893Z,69.68
2019-03-20T12:22:06.935Z,71.02
2019-03-20T12:23:06.974Z,69.78
2019-03-20T12:24:07.018Z,70.48
2019-03-20T12:25:07.066Z,70.16
2019-03-20T12:26:07.100Z,69.97
2019-03-20T12:27:15.219Z,69.43
2019-03-20T12:28:07.184Z,68.76
2019-03-20T12:29:07.235Z,69.49
2019-03-20T12:30:07.340Z,70.58
2019-03-20T12:31:07.315Z,70.01
2019-03-20T12:32:07.355Z,69.34
2019-03-20T12:33:07.407Z,69.43
2019-03-20T12:34:07.430Z,69.43
2019-03-20T12:35:07.474Z,69.34
2019-03-20T12:36:07.514Z,70.10
2019-03-20T12:37:07.555Z,70.01
2019-03-20T12:38:14.366Z,69.53
2019-03-20T12:39:07.650Z,68.48
2019-03-20T12:40:07.679Z,68.67
2019-03-20T12:41:07.729Z,69.72
2019-03-20T12:42:07.763Z,69.34
2019-03-20T12:43:07.804Z,68.57
2019-03-20T12:44:07.858Z,67.71
2019-03-20T12:45:07.888Z,67.43
2019-03-20T12:46:07.929Z,67.52
2019-03-20T12:47:07.971Z,67.81
2019-03-20T12:48:08.128Z,67.91
2019-03-20T12:49:08.061Z,67.75
2019-03-20T12:50:08.099Z,67.65
2019-03-20T12:51:08.137Z,67.08
2019-03-20T12:52:08.186Z,67.84
2019-03-20T12:53:08.224Z,66.31